createdAt,value
2023-01-29T00:02:24.870Z,101647.10
2023-01-29T00:04:53.735Z,101643.40
2023-01-29T00:07:24.970Z,101650.07
2023-01-29T00:09:53.105Z,101654.59
2023-01-29T00:12:21.176Z,101650.16
2023-01-29T00:14:48.983Z,101640.62
2023-01-29T00:17:16.794Z,101637.77
2023-01-29T00:19:44.545Z,101639.80
2023-01-29T00:22:12.304Z,101637.08
2023-01-29T00:24:40.099Z,101635.91
2023-01-29T00:27:08.103Z,101634.05
2023-01-29T00:29:35.838Z,101625.02
2023-01-29T00:32:03.929Z,101619.43
2023-01-29T00:34:31.937Z,101617.88
2023-01-29T00:37:04.894Z,101615.44
2023-01-29T00:39:47.357Z,101613.27
2023-01-29T00:42:34.315Z,101610.06
2023-01-29T00:45:02.189Z,101603.82
2023-01-29T00:47:36.099Z,101602.85
2023-01-29T00:50:09.772Z,101592.31
2023-01-29T00:52:38.642Z,101586.06
2023-01-29T00:55:07.651Z,101579.02
2023-01-29T00:57:35.995Z,101581.86
2023-01-29T01:00:06.327Z,101573.10
2023-01-29T01:02:53.100Z,101574.26
2023-01-29T01:05:21.142Z,101574.24
2023-01-29T01:07:51.377Z,101571.65
2023-01-29T01:10:39.551Z,101575.24
2023-01-29T01:13:08.074Z,101569.89
2023-01-29T01:15:38.229Z,101560.08
2023-01-29T01:18:06.564Z,101556.88
2023-01-29T01:20:36.421Z,101559.88
2023-01-29T01:23:04.385Z,101556.43
2023-01-29T01:25:32.284Z,101559.77
2023-01-29T01:28:03.218Z,101563.16
2023-01-29T01:30:31.113Z,101564.05
2023-01-29T01:32:59.012Z,101566.11
2023-01-29T01:35:26.911Z,101564.59
2023-01-29T01:37:54.742Z,101562.25
2023-01-29T01:40:24.819Z,101553.26
2023-01-29T01:42:55.953Z,101559.46
2023-01-29T01:45:31.286Z,101554.25
2023-01-29T01:48:08.151Z,101552.27
2023-01-29T01:50:47.663Z,101550.64
2023-01-29T01:53:21.231Z,101546.85
2023-01-29T01:55:52.384Z,101546.88
2023-01-29T01:58:24.973Z,101542.73
2023-01-29T02:00:52.786Z,101538.73
2023-01-29T02:03:40.349Z,101538.30
2023-01-29T02:06:27.517Z,101534.70
2023-01-29T02:09:25.864Z,101543.17
2023-01-29T02:11:53.874Z,101543.98
2023-01-29T02:14:22.198Z,101545.94
2023-01-29T02:16:50.013Z,101551.86
2023-01-29T02:19:31.841Z,101557.56
2023-01-29T02:22:05.734Z,101562.78
2023-01-29T02:24:59.092Z,101561.77
2023-01-29T02:27:49.368Z,101554.83
2023-01-29T02:30:32.253Z,101554.64
2023-01-29T02:33:09.761Z,101554.86
2023-01-29T02:36:04.732Z,101551.48
2023-01-29T02:39:14.692Z,101553.34
2023-01-29T02:41:53.676Z,101554.73
2023-01-29T02:44:34.651Z,101554.24
2023-01-29T02:47:23.207Z,101556.47
2023-01-29T02:50:00.223Z,101556.90
2023-01-29T02:52:38.580Z,101554.83
2023-01-29T02:55:18.530Z,101552.78
2023-01-29T02:57:49.149Z,101551.30
2023-01-29T03:00:26.883Z,101550.75
2023-01-29T03:02:59.111Z,101557.08
2023-01-29T03:05:43.641Z,101561.35
2023-01-29T03:08:15.897Z,101563.23
2023-01-29T03:11:03.328Z,101557.95
2023-01-29T03:13:41.572Z,101557.55
2023-01-29T03:16:19.244Z,101551.02
2023-01-29T03:18:53.158Z,101544.39
2023-01-29T03:21:48.639Z,101534.27
2023-01-29T03:24:41.371Z,101538.73
2023-01-29T03:27:29.383Z,101538.03
2023-01-29T03:30:17.185Z,101542.23
2023-01-29T03:32:46.889Z,101546.11
2023-01-29T03:35:21.875Z,101549.33
2023-01-29T03:37:49.667Z,101548.57
2023-01-29T03:40:18.268Z,101549.37
2023-01-29T03:43:12.265Z,101551.95
2023-01-29T03:45:51.015Z,101545.98
2023-01-29T03:48:58.510Z,101535.09
2023-01-29T03:51:39.464Z,101531.60
2023-01-29T03:54:13.266Z,101527.77
2023-01-29T03:57:00.965Z,101529.66
2023-01-29T03:59:39.136Z,101527.75
2023-01-29T04:02:22.056Z,101535.54
2023-01-29T04:04:52.489Z,101529.39
2023-01-29T04:07:29.610Z,101520.79
2023-01-29T04:10:05.899Z,101524.36
2023-01-29T04:12:58.051Z,101524.89
2023-01-29T04:15:29.082Z,101522.50
2023-01-29T04:17:57.394Z,101519.59
2023-01-29T04:20:25.211Z,101519.27
2023-01-29T04:22:53.306Z,101517.15
2023-01-29T04:25:26.683Z,101518.77
2023-01-29T04:28:07.963Z,101513.91
2023-01-29T04:31:00.321Z,101510.38
2023-01-29T04:33:40.495Z,101507.92
2023-01-29T04:36:08.389Z,101505.30
2023-01-29T04:38:42.512Z,101498.30
2023-01-29T04:42:04.458Z,101491.58
2023-01-29T04:44:55.123Z,101483.19
2023-01-29T04:47:45.227Z,101475.14
2023-01-29T04:50:19.675Z,101470.70
2023-01-29T04:52:53.403Z,101470.40
2023-01-29T04:55:40.329Z,101470.95
2023-01-29T04:58:14.559Z,101471.57
2023-01-29T05:00:45.049Z,101467.77
2023-01-29T05:03:15.257Z,101467.90
2023-01-29T05:05:46.714Z,101474.61
2023-01-29T05:08:17.237Z,101474.15
2023-01-29T05:10:46.951Z,101470.79
2023-01-29T05:13:15.314Z,101465.38
2023-01-29T05:15:52.985Z,101459.75
2023-01-29T05:18:20.888Z,101464.04
2023-01-29T05:20:49.350Z,101455.02
2023-01-29T05:23:18.788Z,101450.76
2023-01-29T05:25:48.009Z,101451.17
2023-01-29T05:28:18.953Z,101452.57
2023-01-29T05:30:57.264Z,101447.70
2023-01-29T05:33:31.702Z,101444.28
2023-01-29T05:36:00.237Z,101441.41
2023-01-29T05:38:28.026Z,101444.16
2023-01-29T05:40:58.855Z,101447.25
2023-01-29T05:43:27.178Z,101451.89
2023-01-29T05:45:58.907Z,101454.70
2023-01-29T05:48:29.115Z,101450.79
2023-01-29T05:51:03.317Z,101447.77
2023-01-29T05:53:31.683Z,101441.21
2023-01-29T05:56:03.959Z,101439.80
2023-01-29T05:58:32.677Z,101439.27
2023-01-29T06:01:15.116Z,101439.34
2023-01-29T06:03:43.341Z,101439.48
2023-01-29T06:06:11.400Z,101436.52
2023-01-29T06:08:39.235Z,101445.80
2023-01-29T06:11:11.934Z,101447.70
2023-01-29T06:13:40.600Z,101450.45
2023-01-29T06:16:09.390Z,101450.70
2023-01-29T06:18:37.599Z,101449.30
2023-01-29T06:21:09.768Z,101445.27
2023-01-29T06:23:37.942Z,101440.81
2023-01-29T06:26:08.929Z,101440.99
2023-01-29T06:28:36.988Z,101443.62
2023-01-29T06:33:54.134Z,101446.14
2023-01-29T06:36:21.866Z,101455.72
2023-01-29T06:38:49.856Z,101459.67
2023-01-29T06:41:19.475Z,101464.19
2023-01-29T06:43:48.170Z,101470.33
2023-01-29T06:46:15.934Z,101477.15
2023-01-29T06:48:43.722Z,101478.33
2023-01-29T06:51:11.927Z,101483.98
2023-01-29T06:53:40.898Z,101485.98
2023-01-29T06:56:09.063Z,101489.20
2023-01-29T06:58:38.259Z,101499.46
2023-01-29T07:01:11.701Z,101501.79
2023-01-29T07:03:43.731Z,101500.65
2023-01-29T07:06:11.799Z,101501.39
2023-01-29T07:08:40.199Z,101505.41
2023-01-29T07:11:08.372Z,101508.95
2023-01-29T07:13:36.291Z,101514.98
2023-01-29T07:16:05.846Z,101515.85
2023-01-29T07:18:33.651Z,101507.25
2023-01-29T07:21:07.639Z,101513.79
2023-01-29T07:23:35.508Z,101518.12
2023-01-29T07:26:05.338Z,101519.99
2023-01-29T07:28:40.177Z,101524.18
2023-01-29T07:31:08.919Z,101516.14
2023-01-29T07:33:36.671Z,101508.06
2023-01-29T07:36:08.633Z,101503.35
2023-01-29T07:38:36.364Z,101511.05
2023-01-29T07:41:04.430Z,101509.81
2023-01-29T07:43:32.362Z,101502.39
2023-01-29T07:46:04.531Z,101500.81
2023-01-29T07:48:32.630Z,101504.64
2023-01-29T07:51:00.476Z,101512.03
2023-01-29T07:53:28.832Z,101524.20
2023-01-29T07:55:56.933Z,101515.53
2023-01-29T07:58:24.685Z,101501.86
2023-01-29T08:00:52.440Z,101491.47
2023-01-29T08:03:20.814Z,101485.23
2023-01-29T08:05:48.692Z,101481.31
2023-01-29T08:08:16.549Z,101483.85
2023-01-29T08:10:44.399Z,101483.91
2023-01-29T08:13:12.270Z,101486.30
2023-01-29T08:15:45.860Z,101484.80
2023-01-29T08:18:14.729Z,101485.06
2023-01-29T08:20:42.700Z,101480.84
2023-01-29T08:23:14.178Z,101476.87
2023-01-29T08:25:42.320Z,101481.94
2023-01-29T08:28:11.882Z,101476.09
2023-01-29T08:30:39.983Z,101471.63
2023-01-29T08:33:07.788Z,101466.63
2023-01-29T08:35:36.345Z,101454.13
2023-01-29T08:38:05.284Z,101448.86
2023-01-29T08:40:34.558Z,101443.97
2023-01-29T08:43:08.673Z,101442.27
2023-01-29T08:45:39.212Z,101436.25
2023-01-29T08:48:07.277Z,101432.42
2023-01-29T08:50:36.162Z,101424.05
2023-01-29T08:53:07.819Z,101431.13
2023-01-29T08:55:40.465Z,101431.61
2023-01-29T08:58:11.008Z,101431.10
2023-01-29T09:00:39.013Z,101434.45
2023-01-29T09:03:08.032Z,101431.95
2023-01-29T09:05:37.495Z,101433.52
2023-01-29T09:08:05.924Z,101429.34
2023-01-29T09:10:34.018Z,101433.06
2023-01-29T09:13:01.840Z,101441.19
2023-01-29T09:15:29.975Z,101444.52
2023-01-29T09:17:57.731Z,101443.86
2023-01-29T09:20:25.592Z,101444.71
2023-01-29T09:22:56.040Z,101447.13
2023-01-29T09:25:23.845Z,101441.02
2023-01-29T09:27:51.573Z,101438.22
2023-01-29T09:30:19.594Z,101436.13
2023-01-29T09:32:53.556Z,101436.11
2023-01-29T09:35:23.462Z,101433.92
2023-01-29T09:37:51.959Z,101432.21
2023-01-29T09:40:38.451Z,101432.40
2023-01-29T09:43:21.923Z,101427.41
2023-01-29T09:46:04.469Z,101417.31
2023-01-29T09:48:34.068Z,101409.09
2023-01-29T09:51:06.791Z,101405.02
2023-01-29T09:53:41.339Z,101402.47
2023-01-29T09:56:15.020Z,101399.71
2023-01-29T09:58:43.933Z,101398.38
2023-01-29T10:01:28.337Z,101389.64
2023-01-29T10:04:21.240Z,101380.80
2023-01-29T10:07:13.530Z,101374.91
2023-01-29T10:09:47.761Z,101376.92
2023-01-29T10:12:52.965Z,101375.44
2023-01-29T10:15:32.042Z,101363.77
2023-01-29T10:18:24.507Z,101363.29
2023-01-29T10:21:30.049Z,101361.84
2023-01-29T10:24:24.481Z,101362.27
2023-01-29T10:26:52.987Z,101351.20
2023-01-29T10:29:22.202Z,101345.81
2023-01-29T10:31:54.235Z,101347.39
2023-01-29T10:34:33.648Z,101343.83
2023-01-29T10:37:02.108Z,101339.70
2023-01-29T10:39:30.807Z,101343.71
2023-01-29T10:42:30.097Z,101337.26
2023-01-29T10:45:15.674Z,101338.38
2023-01-29T10:47:46.866Z,101336.58
2023-01-29T10:50:37.941Z,101334.33
2023-01-29T10:53:17.755Z,101335.69
2023-01-29T10:56:20.930Z,101334.71
2023-01-29T10:58:53.645Z,101325.73
2023-01-29T11:01:21.824Z,101319.77
2023-01-29T11:04:01.792Z,101312.54
2023-01-29T11:06:32.380Z,101309.08
2023-01-29T11:09:21.495Z,101307.83
2023-01-29T11:12:05.990Z,101304.20
2023-01-29T11:14:43.004Z,101304.05
2023-01-29T11:17:18.300Z,101295.07
2023-01-29T11:19:48.230Z,101290.80
2023-01-29T11:22:21.222Z,101291.65
2023-01-29T11:25:19.230Z,101291.45
2023-01-29T11:27:53.390Z,101293.91
2023-01-29T11:30:26.330Z,101294.91
2023-01-29T11:33:20.189Z,101288.08
2023-01-29T11:35:48.093Z,101285.74
2023-01-29T11:38:16.001Z,101281.55
2023-01-29T11:40:44.910Z,101279.50
2023-01-29T11:43:27.771Z,101274.64
2023-01-29T11:45:58.868Z,101255.79
2023-01-29T11:48:59.034Z,101253.73
2023-01-29T11:51:30.272Z,101245.58
2023-01-29T11:54:01.902Z,101239.94
2023-01-29T11:56:34.329Z,101237.36
2023-01-29T11:59:04.765Z,101232.55
2023-01-29T12:01:37.193Z,101228.80
2023-01-29T12:04:18.424Z,101225.09
2023-01-29T12:06:50.496Z,101218.38
2023-01-29T12:09:29.417Z,101217.90
2023-01-29T12:11:59.172Z,101218.89
2023-01-29T12:14:33.399Z,101209.52
2023-01-29T12:17:14.056Z,101203.86
2023-01-29T12:19:49.888Z,101199.79
2023-01-29T12:22:22.657Z,101190.55
2023-01-29T12:25:09.814Z,101181.80
2023-01-29T12:27:49.737Z,101170.77
2023-01-29T12:30:22.780Z,101168.63
2023-01-29T12:32:59.787Z,101170.27
2023-01-29T12:35:38.743Z,101160.27
2023-01-29T12:38:19.414Z,101162.29
2023-01-29T12:40:47.714Z,101160.90
2023-01-29T12:43:22.795Z,101157.65
2023-01-29T12:45:53.108Z,101159.36
2023-01-29T12:48:33.358Z,101153.52
2023-01-29T12:51:08.024Z,101151.33
2023-01-29T12:53:40.588Z,101141.95
2023-01-29T12:56:16.897Z,101143.42
2023-01-29T12:58:48.061Z,101133.54
2023-01-29T13:01:41.751Z,101123.56
2023-01-29T13:04:26.309Z,101117.79
2023-01-29T13:06:59.394Z,101114.54
2023-01-29T13:09:29.080Z,101113.66
2023-01-29T13:12:01.262Z,101115.09
2023-01-29T13:14:40.058Z,101113.08
2023-01-29T13:17:13.201Z,101116.87
2023-01-29T13:19:43.429Z,101123.59
2023-01-29T13:22:18.670Z,101122.49
2023-01-29T13:24:58.778Z,101120.52
2023-01-29T13:27:33.902Z,101119.69
2023-01-29T13:30:02.048Z,101116.17
2023-01-29T13:32:32.038Z,101120.53
2023-01-29T13:35:05.329Z,101120.86
2023-01-29T13:37:50.511Z,101117.71
2023-01-29T13:40:27.598Z,101119.54
2023-01-29T13:42:57.867Z,101119.31
2023-01-29T13:45:43.371Z,101119.23
2023-01-29T13:48:23.257Z,101114.59
2023-01-29T13:50:51.691Z,101111.58
2023-01-29T13:53:29.608Z,101106.16
2023-01-29T13:56:32.679Z,101099.94
2023-01-29T13:59:02.487Z,101101.18
2023-01-29T14:01:48.822Z,101095.83
2023-01-29T14:04:21.704Z,101092.34
2023-01-29T14:06:54.755Z,101098.61
2023-01-29T14:09:32.608Z,101096.50
2023-01-29T14:12:00.610Z,101101.64
2023-01-29T14:14:51.989Z,101100.17
2023-01-29T14:17:20.531Z,101093.17
2023-01-29T14:20:01.936Z,101092.84
2023-01-29T14:22:31.674Z,101090.18
2023-01-29T14:25:04.040Z,101087.12
2023-01-29T14:27:32.355Z,101092.39
2023-01-29T14:30:10.000Z,101095.13
2023-01-29T14:32:39.661Z,101091.02
2023-01-29T14:35:20.233Z,101088.40
2023-01-29T14:37:51.239Z,101088.64
2023-01-29T14:40:18.985Z,101092.48
2023-01-29T14:43:21.764Z,101092.48
2023-01-29T14:45:50.474Z,101094.73
2023-01-29T14:48:39.414Z,101095.51
2023-01-29T14:51:10.896Z,101088.30
2023-01-29T14:54:06.194Z,101087.90
2023-01-29T14:56:37.159Z,101085.02
2023-01-29T14:59:12.835Z,101087.35
2023-01-29T15:01:47.507Z,101089.04
2023-01-29T15:04:19.290Z,101088.40
2023-01-29T15:06:50.817Z,101087.35
2023-01-29T15:10:22.290Z,101089.73
2023-01-29T15:13:14.488Z,101086.66
2023-01-29T15:16:06.773Z,101080.85
2023-01-29T15:18:42.305Z,101081.21
2023-01-29T15:21:15.448Z,101078.70
2023-01-29T15:23:44.780Z,101081.39
2023-01-29T15:26:18.832Z,101083.55
2023-01-29T15:29:02.160Z,101091.02
2023-01-29T15:31:32.421Z,101089.27
2023-01-29T15:34:06.643Z,101088.36
2023-01-29T15:36:36.846Z,101094.22
2023-01-29T15:39:19.877Z,101093.91
2023-01-29T15:41:47.922Z,101091.52
2023-01-29T15:44:18.896Z,101090.14
2023-01-29T15:46:55.973Z,101085.42
2023-01-29T15:49:32.204Z,101088.27
2023-01-29T15:52:04.726Z,101087.02
2023-01-29T15:54:34.866Z,101084.87
2023-01-29T15:57:03.710Z,101087.63
2023-01-29T15:59:35.009Z,101090.37
2023-01-29T16:02:26.598Z,101087.80
2023-01-29T16:04:55.307Z,101094.86
2023-01-29T16:07:23.424Z,101096.06
2023-01-29T16:09:51.961Z,101089.55
2023-01-29T16:12:20.216Z,101093.30
2023-01-29T16:14:49.946Z,101086.20
2023-01-29T16:17:40.868Z,101084.27
2023-01-29T16:20:49.697Z,101081.95
2023-01-29T16:23:21.860Z,101084.19
2023-01-29T16:25:50.111Z,101080.61
2023-01-29T16:28:18.257Z,101079.34
2023-01-29T16:30:49.709Z,101073.15
2023-01-29T16:33:17.718Z,101073.70
2023-01-29T16:35:51.364Z,101076.21
2023-01-29T16:38:37.611Z,101073.52
2023-01-29T16:41:38.752Z,101074.66
2023-01-29T16:44:15.931Z,101069.63
2023-01-29T16:46:48.458Z,101070.58
2023-01-29T16:49:28.611Z,101066.46
2023-01-29T16:51:57.081Z,101072.23
2023-01-29T16:54:26.043Z,101074.61
2023-01-29T16:56:56.409Z,101071.50
2023-01-29T16:59:32.833Z,101070.48
2023-01-29T17:02:01.037Z,101063.85
2023-01-29T17:04:28.899Z,101057.99
2023-01-29T17:06:59.631Z,101049.55
2023-01-29T17:09:30.456Z,101049.06
2023-01-29T17:12:04.935Z,101040.50
2023-01-29T17:14:33.984Z,101040.27
2023-01-29T17:17:05.261Z,101037.79
2023-01-29T17:19:33.539Z,101037.39
2023-01-29T17:22:04.775Z,101034.05
2023-01-29T17:24:35.315Z,101036.23
2023-01-29T17:27:03.230Z,101032.80
2023-01-29T17:29:31.694Z,101026.34
2023-01-29T17:32:02.095Z,101025.38
2023-01-29T17:34:29.943Z,101021.94
2023-01-29T17:36:57.686Z,101023.73
2023-01-29T17:39:25.854Z,101021.67
2023-01-29T17:41:55.766Z,101026.35
2023-01-29T17:44:26.311Z,101027.17
2023-01-29T17:46:54.452Z,101025.02
2023-01-29T17:49:27.664Z,101025.66
2023-01-29T17:51:57.010Z,101024.75
2023-01-29T17:54:25.961Z,101017.83
2023-01-29T17:56:53.984Z,101013.16
2023-01-29T17:59:24.264Z,101008.03
2023-01-29T18:01:52.287Z,101000.23
2023-01-29T18:04:20.392Z,100994.69
2023-01-29T18:06:50.049Z,100990.22
2023-01-29T18:09:20.723Z,100992.86
2023-01-29T18:11:49.431Z,100988.20
2023-01-29T18:14:17.691Z,100985.67
2023-01-29T18:16:46.190Z,100987.83
2023-01-29T18:19:23.136Z,100983.77
2023-01-29T18:21:51.116Z,100980.97
2023-01-29T18:24:20.740Z,100976.48
2023-01-29T18:26:49.799Z,100975.34
2023-01-29T18:29:18.320Z,100976.23
2023-01-29T18:31:49.449Z,100970.20
2023-01-29T18:34:17.584Z,100959.58
2023-01-29T18:36:47.977Z,100965.38
2023-01-29T18:39:16.434Z,100963.18
2023-01-29T18:41:44.539Z,100956.68
2023-01-29T18:44:12.794Z,100953.12
2023-01-29T18:46:40.663Z,100954.21
2023-01-29T18:49:08.914Z,100952.93
2023-01-29T18:51:37.001Z,100946.53
2023-01-29T18:54:06.083Z,100941.45
2023-01-29T18:56:34.101Z,100939.67
2023-01-29T18:59:03.423Z,100938.44
2023-01-29T19:01:33.382Z,100940.71
2023-01-29T19:04:01.950Z,100937.36
2023-01-29T19:06:30.319Z,100936.44
2023-01-29T19:08:58.203Z,100931.16
2023-01-29T19:11:26.149Z,100925.62
2023-01-29T19:13:55.083Z,100925.02
2023-01-29T19:16:22.933Z,100928.83
2023-01-29T19:18:53.248Z,100925.58
2023-01-29T19:21:22.408Z,100923.34
2023-01-29T19:23:52.890Z,100925.50
2023-01-29T19:26:20.813Z,100926.83
2023-01-29T19:28:48.863Z,100921.66
2023-01-29T19:31:16.625Z,100918.05
2023-01-29T19:33:44.721Z,100922.45
2023-01-29T19:36:13.640Z,100918.64
2023-01-29T19:38:41.637Z,100915.95
2023-01-29T19:41:09.752Z,100917.39
2023-01-29T19:43:40.771Z,100916.11
2023-01-29T19:46:10.450Z,100907.64
2023-01-29T19:48:38.536Z,100903.02
2023-01-29T19:51:09.188Z,100895.08
2023-01-29T19:53:38.133Z,100892.53
2023-01-29T19:56:08.652Z,100888.51
2023-01-29T19:58:37.040Z,100880.33
2023-01-29T20:01:29.491Z,100874.98
2023-01-29T20:03:57.735Z,100876.21
2023-01-29T20:06:28.079Z,100873.30
2023-01-29T20:08:56.105Z,100871.06
2023-01-29T20:11:25.123Z,100869.28
2023-01-29T20:13:53.898Z,100863.97
2023-01-29T20:16:22.164Z,100864.52
2023-01-29T20:18:50.218Z,100864.14
2023-01-29T20:21:20.829Z,100858.60
2023-01-29T20:23:50.280Z,100857.91
2023-01-29T20:26:19.539Z,100859.88
2023-01-29T20:28:48.065Z,100855.04
2023-01-29T20:31:16.585Z,100855.55
2023-01-29T20:33:45.062Z,100852.45
2023-01-29T20:36:14.854Z,100855.06
2023-01-29T20:38:42.949Z,100851.82
2023-01-29T20:41:19.475Z,100850.95
2023-01-29T20:43:50.205Z,100851.14
2023-01-29T20:46:18.615Z,100844.30
2023-01-29T20:48:47.333Z,100840.68
2023-01-29T20:51:17.913Z,100842.11
2023-01-29T20:53:46.878Z,100840.05
2023-01-29T20:56:16.648Z,100842.29
2023-01-29T20:58:45.179Z,100841.33
2023-01-29T21:01:17.282Z,100832.36
2023-01-29T21:03:46.566Z,100832.08
2023-01-29T21:06:15.109Z,100831.34
2023-01-29T21:08:43.171Z,100827.58
2023-01-29T21:11:11.254Z,100821.69
2023-01-29T21:13:39.300Z,100820.27
2023-01-29T21:16:07.361Z,100807.02
2023-01-29T21:18:35.295Z,100807.58
2023-01-29T21:21:06.162Z,100801.77
2023-01-29T21:23:34.202Z,100804.88
2023-01-29T21:26:04.340Z,100801.41
2023-01-29T21:28:32.691Z,100807.50
2023-01-29T21:31:08.439Z,100802.34
2023-01-29T21:33:37.048Z,100798.82
2023-01-29T21:36:05.663Z,100798.36
2023-01-29T21:38:35.170Z,100793.70
2023-01-29T21:41:04.859Z,100791.05
2023-01-29T21:43:32.807Z,100785.65
2023-01-29T21:46:05.093Z,100779.75
2023-01-29T21:48:33.059Z,100780.44
2023-01-29T21:51:01.091Z,100779.84
2023-01-29T21:53:28.975Z,100774.85
2023-01-29T21:56:01.550Z,100765.20
2023-01-29T21:58:30.029Z,100765.06
2023-01-29T22:01:36.976Z,100754.24
2023-01-29T22:03:47.360Z,100750.80
2023-01-29T22:06:15.673Z,100749.98
2023-01-29T22:08:44.184Z,100747.80
2023-01-29T22:11:12.326Z,100744.27
2023-01-29T22:13:40.536Z,100743.64
2023-01-29T22:16:08.478Z,100736.48
2023-01-29T22:18:36.251Z,100737.16
2023-01-29T22:21:04.160Z,100734.91
2023-01-29T22:23:32.383Z,100732.36
2023-01-29T22:26:04.492Z,100730.02
2023-01-29T22:28:32.793Z,100723.94
2023-01-29T22:31:04.733Z,100719.77
2023-01-29T22:33:33.573Z,100709.12
2023-01-29T22:36:01.491Z,100700.48
2023-01-29T22:38:29.573Z,100697.41
2023-01-29T22:40:59.659Z,100695.45
2023-01-29T22:43:27.534Z,100690.27
2023-01-29T22:45:56.660Z,100677.16
2023-01-29T22:48:24.714Z,100671.45
2023-01-29T22:51:09.517Z,100666.43
2023-01-29T22:53:41.499Z,100660.30
2023-01-29T22:56:10.607Z,100657.65
2023-01-29T22:58:38.417Z,100652.12
2023-01-29T23:01:06.234Z,100648.52
2023-01-29T23:03:34.543Z,100643.27
2023-01-29T23:06:03.837Z,100639.11
2023-01-29T23:08:33.487Z,100629.42
2023-01-29T23:11:14.073Z,100625.90
2023-01-29T23:13:43.114Z,100613.89
2023-01-29T23:16:11.628Z,100610.15
2023-01-29T23:18:39.527Z,100611.45
2023-01-29T23:21:07.676Z,100606.73
2023-01-29T23:23:36.507Z,100597.80
2023-01-29T23:26:24.929Z,100594.13
2023-01-29T23:28:52.807Z,100589.13
2023-01-29T23:31:20.735Z,100582.86
2023-01-29T23:33:49.422Z,100575.08
2023-01-29T23:36:17.348Z,100573.77
2023-01-29T23:38:45.122Z,100571.42
2023-01-29T23:41:13.032Z,100569.65
2023-01-29T23:43:40.934Z,100558.81
2023-01-29T23:46:08.758Z,100549.64
2023-01-29T23:48:36.640Z,100540.37
2023-01-29T23:51:04.487Z,100535.48
2023-01-29T23:53:34.759Z,100532.56
2023-01-29T23:56:04.251Z,100525.27
2023-01-29T23:58:32.585Z,100516.20
